« Back
NWS Peachtree City, Ga » Text Product » ATL Terminal Aerodrome Forecast


Printer-friendly Version
Current Version              Previous Versions:   1  2  3  4  5  6  7  8  9  

Terminal Aerodrome Forecast

181
FTUS42 KFFC 282320
TAFATL
TAF
KATL 282320Z 2900/3006 24004KT P6SM SKC
     FM291600 19009KT P6SM SCT250
     FM300100 19004KT P6SM SCT250=

USA.gov is the U.S. government's official web portal to all federal, state and local government web resources and services.